Time;durP1;ratioP1;P1;durP2;ratioP2;P2;SDS_P1;SDS_P2;PMS_P1;PMS_P2;Temp;Humidity;BMP_temperature;BMP_pressure;BME280_temperature;BME280_humidity;BME280_pressure;Samples;Min_cycle;Max_cycle;Signal;HPM_P1;HPM_P2
2021/07/12 00:00:32;;;;;;;7.97;7.17;;;18.40;10.00;;;;;;5028439;28;20534;-73
2021/07/12 00:03:00;;;;;;;8.60;7.90;;;18.40;20.00;;;;;;5025957;28;20920;-73
2021/07/12 00:05:27;;;;;;;8.13;6.97;;;18.40;20.50;;;;;;5024240;28;20782;-74
2021/07/12 00:07:53;;;;;;;9.83;7.63;;;18.30;50.50;;;;;;5029986;28;20449;-73
2021/07/12 00:10:26;;;;;;;8.40;7.60;;;18.20;52.20;;;;;;5023993;28;20945;-74
2021/07/12 00:12:53;;;;;;;8.40;7.10;;;18.20;35.90;;;;;;5015729;28;20523;-74
2021/07/12 00:15:22;;;;;;;8.77;7.23;;;18.10;73.80;;;;;;5026779;28;22286;-74
2021/07/12 00:17:48;;;;;;;7.90;7.10;;;18.10;99.90;;;;;;5017620;28;20454;-74
2021/07/12 00:20:16;;;;;;;8.53;6.93;;;18.10;99.90;;;;;;5018784;28;20478;-74
2021/07/12 00:22:44;;;;;;;7.13;6.50;;;18.00;91.40;;;;;;5021474;28;20438;-73
2021/07/12 00:25:11;;;;;;;8.20;7.40;;;18.00;93.50;;;;;;5024239;28;20921;-74
2021/07/12 00:27:37;;;;;;;8.70;7.20;;;18.00;71.20;;;;;;5028906;28;21394;-73
2021/07/12 00:30:08;;;;;;;11.37;7.33;;;18.20;17.40;;;;;;5020324;28;20454;-73
2021/07/12 00:32:35;;;;;;;7.73;7.03;;;18.20;12.00;;;;;;5024453;28;20507;-74
2021/07/12 00:35:01;;;;;;;8.50;7.70;;;18.20;5.30;;;;;;5018957;28;20454;-73
2021/07/12 00:37:27;;;;;;;8.27;7.47;;;18.20;1.00;;;;;;5016671;28;20435;-73
2021/07/12 00:39:52;;;;;;;9.80;6.83;;;18.20;1.00;;;;;;5026501;28;20486;-73
2021/07/12 00:42:19;;;;;;;9.93;7.13;;;18.20;4.40;;;;;;5025119;28;20190;-73
2021/07/12 00:44:45;;;;;;;10.00;7.70;;;18.20;1.00;;;;;;5024188;28;25301;-73
2021/07/12 00:47:11;;;;;;;7.83;7.10;;;18.20;1.00;;;;;;5019626;28;20183;-73
2021/07/12 00:49:37;;;;;;;7.47;6.80;;;18.20;1.00;;;;;;5015686;28;20510;-73
2021/07/12 00:52:04;;;;;;;8.30;7.50;;;18.20;1.00;;;;;;5025818;28;20450;-73
2021/07/12 00:54:30;;;;;;;10.57;7.37;;;18.20;1.00;;;;;;5024764;28;20608;-73
2021/07/12 00:56:59;;;;;;;8.03;7.33;;;18.10;1.00;;;;;;5019013;28;20695;-73
2021/07/12 00:59:30;;;;;;;8.80;7.90;;;18.10;1.00;;;;;;5022788;28;20855;-73
2021/07/12 01:01:56;;;;;;;9.73;8.90;;;18.10;1.00;;;;;;5026815;28;20443;-73
2021/07/12 01:04:22;;;;;;;9.10;7.13;;;18.10;1.00;;;;;;5020428;28;21420;-73
2021/07/12 01:06:49;;;;;;;7.27;6.57;;;18.00;1.00;;;;;;5015681;28;20446;-73
2021/07/12 01:09:16;;;;;;;8.03;7.23;;;17.90;4.80;;;;;;5020161;28;20473;-73
2021/07/12 01:11:47;;;;;;;8.23;7.43;;;17.70;30.70;;;;;;5024293;28;20532;-73
2021/07/12 01:14:34;;;;;;;9.30;7.13;;;17.50;99.90;;;;;;5038980;28;20469;-74
2021/07/12 01:17:44;;;;;;;8.83;7.53;;;17.40;99.90;;;;;;5026792;28;20445;-74
2021/07/12 01:20:57;;;;;;;7.30;6.60;;;17.20;99.90;;;;;;5019330;28;20785;-74
2021/07/12 01:23:44;;;;;;;10.37;8.20;;;17.10;99.90;;;;;;5016968;28;20445;-74
2021/07/12 01:26:35;;;;;;;9.00;8.10;;;17.10;99.90;;;;;;5021413;28;20557;-73
2021/07/12 01:29:01;;;;;;;9.70;7.43;;;17.10;99.90;;;;;;5035943;28;20514;-73
2021/07/12 01:31:58;;;;;;;8.80;7.90;;;17.10;99.90;;;;;;5019957;28;20447;-73
2021/07/12 01:34:30;;;;;;;8.47;7.77;;;17.10;99.90;;;;;;5019128;28;20217;-73
2021/07/12 01:37:07;;;;;;;8.70;7.90;;;17.20;99.90;;;;;;5018761;28;20445;-73
2021/07/12 01:39:39;;;;;;;8.27;7.40;;;17.30;82.60;;;;;;5027206;28;20483;-73
2021/07/12 01:42:12;;;;;;;9.90;8.70;;;17.40;71.90;;;;;;5033191;28;20447;-73
2021/07/12 01:44:54;;;;;;;8.77;7.97;;;17.40;94.20;;;;;;5025591;28;20978;-73
2021/07/12 01:47:52;;;;;;;9.50;8.60;;;17.50;64.20;;;;;;5022241;28;20442;-73
2021/07/12 01:50:35;;;;;;;14.47;8.40;;;17.50;88.90;;;;;;5016700;28;22039;-73
2021/07/12 01:53:35;;;;;;;9.57;8.67;;;17.40;96.60;;;;;;5024586;28;21068;-73
2021/07/12 01:56:32;;;;;;;9.90;8.90;;;17.40;57.20;;;;;;5018579;28;20454;-73
2021/07/12 01:59:13;;;;;;;10.60;9.60;;;17.30;84.50;;;;;;5028987;28;20438;-73
2021/07/12 02:01:42;;;;;;;10.23;9.20;;;17.20;94.80;;;;;;5021988;28;20452;-73
2021/07/12 02:04:14;;;;;;;9.70;8.70;;;17.30;76.10;;;;;;5022089;28;20450;-73
2021/07/12 02:06:42;;;;;;;10.30;9.20;;;17.40;39.40;;;;;;5037014;28;20909;-73
2021/07/12 02:09:14;;;;;;;9.70;8.80;;;17.40;41.00;;;;;;5019552;28;20457;-73
2021/07/12 02:11:45;;;;;;;10.20;9.30;;;17.40;34.20;;;;;;5039776;28;20456;-73
2021/07/12 02:14:20;;;;;;;13.30;9.43;;;17.40;38.50;;;;;;5017288;28;20507;-73
2021/07/12 02:16:50;;;;;;;10.57;9.67;;;17.50;43.50;;;;;;5039244;28;20646;-73
2021/07/12 02:19:18;;;;;;;10.60;8.90;;;17.50;25.80;;;;;;5023599;28;20638;-73
2021/07/12 02:21:50;;;;;;;9.50;8.63;;;17.50;11.80;;;;;;5033419;28;20835;-74
2021/07/12 02:24:36;;;;;;;10.20;8.30;;;17.50;7.70;;;;;;5023171;28;20543;-73
2021/07/12 02:27:03;;;;;;;9.83;8.83;;;17.50;7.50;;;;;;5021081;28;20888;-73
2021/07/12 02:29:31;;;;;;;10.50;9.53;;;17.40;13.60;;;;;;5037103;28;20486;-73
2021/07/12 02:31:59;;;;;;;8.77;8.07;;;17.30;14.80;;;;;;5020663;28;20584;-73
2021/07/12 02:34:29;;;;;;;9.30;8.40;;;17.20;30.60;;;;;;5024031;28;20475;-73
2021/07/12 02:36:59;;;;;;;10.87;9.77;;;17.20;40.30;;;;;;5023312;28;20448;-73
2021/07/12 02:39:33;;;;;;;10.27;9.27;;;17.20;12.80;;;;;;5028134;28;20478;-73
2021/07/12 02:42:03;;;;;;;10.20;9.20;;;17.20;23.20;;;;;;5019889;28;20831;-73
2021/07/12 02:44:32;;;;;;;12.33;10.47;;;17.20;17.60;;;;;;5024852;28;20664;-73
2021/07/12 02:46:59;;;;;;;11.90;10.67;;;17.10;1.00;;;;;;5025199;28;20446;-73
2021/07/12 02:49:24;;;;;;;14.73;10.20;;;17.00;13.20;;;;;;5028235;28;21035;-73
2021/07/12 02:51:59;;;;;;;15.47;13.20;;;17.00;19.00;;;;;;5020768;28;20438;-74
2021/07/12 02:54:35;;;;;;;12.13;10.60;;;17.00;1.00;;;;;;5038767;28;20484;-73
2021/07/12 02:57:06;;;;;;;11.87;10.63;;;17.10;1.00;;;;;;5039763;28;20504;-73
2021/07/12 02:59:32;;;;;;;14.30;11.10;;;17.20;1.00;;;;;;5026510;28;20461;-73
2021/07/12 03:01:58;;;;;;;11.83;10.60;;;17.10;1.00;;;;;;5019780;28;20183;-73
2021/07/12 03:04:24;;;;;;;12.43;11.13;;;17.10;1.00;;;;;;5039628;28;20448;-73
2021/07/12 03:06:52;;;;;;;12.40;11.10;;;17.00;1.00;;;;;;5026494;28;20453;-74
2021/07/12 03:09:35;;;;;;;11.50;10.40;;;17.00;1.00;;;;;;5022240;28;20306;-74
2021/07/12 03:12:16;;;;;;;13.10;10.30;;;16.80;4.70;;;;;;5019306;28;20456;-73
2021/07/12 03:15:16;;;;;;;14.87;11.50;;;16.80;8.10;;;;;;5033717;28;21007;-74
2021/07/12 03:17:51;;;;;;;11.27;9.63;;;16.70;16.10;;;;;;4990777;28;20445;-73
2021/07/12 03:20:19;;;;;;;16.60;11.73;;;16.70;33.50;;;;;;5029619;28;20533;-73
2021/07/12 03:22:50;;;;;;;15.03;10.40;;;16.70;39.80;;;;;;5022412;28;20442;-73
2021/07/12 03:25:24;;;;;;;13.50;12.00;;;16.70;36.70;;;;;;5024840;28;20445;-73
2021/07/12 03:27:54;;;;;;;14.80;11.50;;;16.60;28.20;;;;;;5039546;28;20445;-73
2021/07/12 03:30:21;;;;;;;15.10;12.60;;;16.70;26.80;;;;;;5012116;28;20463;-73
2021/07/12 03:32:49;;;;;;;12.77;11.30;;;16.60;24.90;;;;;;5019114;28;20473;-74
2021/07/12 03:35:18;;;;;;;13.30;11.47;;;16.60;42.20;;;;;;5028892;28;20434;-73
2021/07/12 03:37:43;;;;;;;17.17;13.10;;;16.60;44.40;;;;;;5013399;28;20466;-73
2021/07/12 03:40:12;;;;;;;13.93;11.93;;;16.60;29.20;;;;;;5018326;28;20444;-73
2021/07/12 03:42:39;;;;;;;16.17;13.27;;;16.70;28.30;;;;;;5014237;28;20445;-73
2021/07/12 03:45:08;;;;;;;16.63;12.83;;;16.80;2.20;;;;;;5011606;28;20461;-73
2021/07/12 03:47:36;;;;;;;13.13;11.77;;;16.90;1.00;;;;;;5030473;28;20453;-73
2021/07/12 03:50:11;;;;;;;11.60;10.40;;;16.90;1.00;;;;;;5019518;28;20446;-72
2021/07/12 03:52:48;;;;;;;12.60;11.27;;;16.90;1.00;;;;;;5025422;28;20489;-73
2021/07/12 03:55:16;;;;;;;13.33;12.00;;;16.90;1.00;;;;;;5023403;28;21116;-73
2021/07/12 03:57:42;;;;;;;11.97;10.73;;;16.80;11.50;;;;;;5020166;28;21005;-73
2021/07/12 04:00:11;;;;;;;14.13;12.73;;;16.80;28.90;;;;;;5010564;28;20813;-73
2021/07/12 04:02:43;;;;;;;16.77;14.33;;;16.80;22.90;;;;;;5009466;28;20614;-73
2021/07/12 04:05:09;;;;;;;13.63;12.23;;;16.80;17.10;;;;;;5020133;28;20475;-73
2021/07/12 04:07:36;;;;;;;13.93;12.50;;;16.90;1.00;;;;;;5020780;28;20453;-73
2021/07/12 04:10:04;;;;;;;14.10;12.40;;;16.90;1.00;;;;;;5025660;28;20924;-73
2021/07/12 04:12:30;;;;;;;13.30;11.43;;;17.00;5.40;;;;;;5018347;28;21962;-73
2021/07/12 04:14:57;;;;;;;14.73;10.37;;;17.00;9.40;;;;;;5024188;28;20589;-73
2021/07/12 04:17:23;;;;;;;11.73;10.43;;;17.10;5.10;;;;;;5022496;28;20194;-73
2021/07/12 04:19:48;;;;;;;10.47;9.37;;;17.00;1.90;;;;;;5010969;28;20481;-73
2021/07/12 04:22:14;;;;;;;12.03;10.73;;;16.90;5.60;;;;;;5007357;28;20191;-73
2021/07/12 04:24:40;;;;;;;11.47;10.37;;;16.80;22.10;;;;;;5009501;28;20670;-73
2021/07/12 04:27:06;;;;;;;14.10;12.13;;;16.70;43.60;;;;;;5013970;28;20187;-73
2021/07/12 04:29:32;;;;;;;14.63;12.70;;;16.80;52.80;;;;;;5017722;28;20317;-73
2021/07/12 04:32:00;;;;;;;17.07;15.27;;;16.80;28.60;;;;;;5022541;28;20517;-73
2021/07/12 04:34:27;;;;;;;15.80;13.53;;;16.80;9.40;;;;;;5016052;28;20480;-73
2021/07/12 04:36:53;;;;;;;11.33;10.10;;;16.90;12.40;;;;;;5018205;28;20975;-73
2021/07/12 04:39:19;;;;;;;12.87;11.57;;;17.00;18.20;;;;;;5023921;28;20449;-73
2021/07/12 04:41:44;;;;;;;13.90;11.97;;;17.00;1.00;;;;;;5022344;28;20190;-73
2021/07/12 04:44:10;;;;;;;17.67;13.80;;;17.00;1.00;;;;;;5024739;28;20179;-73
2021/07/12 04:46:37;;;;;;;14.20;12.80;;;16.90;1.00;;;;;;5026028;28;20587;-73
2021/07/12 04:49:03;;;;;;;13.40;12.00;;;17.00;1.00;;;;;;5023452;28;20190;-73
2021/07/12 04:51:31;;;;;;;15.30;13.70;;;17.10;1.00;;;;;;5015387;28;21132;-73
2021/07/12 04:53:56;;;;;;;18.30;12.97;;;17.10;1.00;;;;;;5008918;28;20482;-72
2021/07/12 04:56:22;;;;;;;15.97;12.87;;;17.20;1.00;;;;;;5037690;28;20433;-73
2021/07/12 04:58:48;;;;;;;14.60;12.97;;;17.40;1.00;;;;;;5026080;28;20909;-73
2021/07/12 05:01:15;;;;;;;16.93;12.63;;;17.40;1.00;;;;;;5030843;28;20206;-72
2021/07/12 05:03:42;;;;;;;15.83;13.53;;;17.20;1.00;;;;;;5014469;28;20466;-73
2021/07/12 05:06:08;;;;;;;17.20;13.33;;;17.10;1.00;;;;;;5033076;28;20872;-73
2021/07/12 05:08:33;;;;;;;17.13;14.10;;;17.10;1.00;;;;;;5018537;28;20446;-73
2021/07/12 05:10:59;;;;;;;16.83;14.50;;;17.30;1.00;;;;;;5019368;28;20198;-73
2021/07/12 05:13:28;;;;;;;16.20;14.10;;;17.50;1.00;;;;;;5024576;28;20587;-73
2021/07/12 05:15:53;;;;;;;19.27;13.77;;;17.70;1.00;;;;;;5020247;28;20475;-73
2021/07/12 05:18:19;;;;;;;14.80;12.87;;;17.50;1.00;;;;;;5022061;28;20479;-73
2021/07/12 05:20:45;;;;;;;15.40;13.47;;;17.40;1.00;;;;;;5023529;28;20222;-73
2021/07/12 05:23:10;;;;;;;14.50;13.00;;;17.30;1.00;;;;;;5022419;28;20266;-73
2021/07/12 05:25:36;;;;;;;16.87;14.97;;;17.30;1.00;;;;;;5021954;28;20240;-73
2021/07/12 05:28:04;;;;;;;17.07;13.73;;;17.30;1.00;;;;;;5025091;28;20198;-73
2021/07/12 05:30:30;;;;;;;15.37;13.70;;;17.50;1.00;;;;;;5023714;28;20271;-73
2021/07/12 05:32:56;;;;;;;16.43;14.67;;;17.70;1.00;;;;;;5028200;28;20871;-73
2021/07/12 05:35:21;;;;;;;14.13;12.70;;;18.00;1.00;;;;;;5036767;28;20449;-73
2021/07/12 05:37:47;;;;;;;13.70;12.20;;;17.90;1.00;;;;;;5025231;28;20203;-73
2021/07/12 05:40:13;;;;;;;14.50;12.93;;;17.80;1.00;;;;;;5019046;28;20184;-74
2021/07/12 05:42:39;;;;;;;15.20;13.60;;;17.60;1.00;;;;;;5027422;28;20183;-73
2021/07/12 05:45:05;;;;;;;17.00;12.93;;;17.60;1.00;;;;;;5016381;28;21009;-74
2021/07/12 05:47:31;;;;;;;19.17;13.80;;;17.60;1.00;;;;;;5023130;28;20657;-74
2021/07/12 05:49:56;;;;;;;19.20;13.47;;;17.70;1.00;;;;;;5028509;28;20503;-74
2021/07/12 05:52:22;;;;;;;15.20;13.00;;;18.00;1.00;;;;;;5026989;28;20188;-74
2021/07/12 05:54:48;;;;;;;17.30;12.70;;;18.10;1.00;;;;;;5012419;28;20703;-74
2021/07/12 05:57:14;;;;;;;12.60;11.30;;;18.20;1.00;;;;;;5030974;28;20183;-74
2021/07/12 05:59:39;;;;;;;12.57;11.23;;;18.30;1.00;;;;;;5023961;28;20445;-74
2021/07/12 06:02:06;;;;;;;11.90;10.77;;;18.50;1.00;;;;;;5023985;28;20445;-72
2021/07/12 06:04:32;;;;;;;10.70;9.60;;;18.60;1.00;;;;;;5009226;28;20214;-73
2021/07/12 06:06:57;;;;;;;11.03;9.83;;;18.70;1.00;;;;;;5025962;28;20449;-74
2021/07/12 06:09:23;;;;;;;10.50;9.40;;;18.80;1.00;;;;;;5014838;28;20191;-74
2021/07/12 06:11:49;;;;;;;12.60;9.90;;;18.90;1.00;;;;;;5016273;28;20862;-74
2021/07/12 06:14:14;;;;;;;11.77;10.10;;;18.90;1.00;;;;;;5014065;28;20212;-74
2021/07/12 06:16:40;;;;;;;10.57;9.00;;;19.00;1.00;;;;;;4997778;28;20218;-74
2021/07/12 06:19:06;;;;;;;10.43;9.40;;;19.00;1.00;;;;;;5011288;28;20195;-74
2021/07/12 06:21:31;;;;;;;11.60;9.20;;;19.10;1.00;;;;;;5015429;28;20181;-74
2021/07/12 06:23:57;;;;;;;13.20;11.80;;;19.20;1.00;;;;;;5021147;28;20795;-74
2021/07/12 06:26:23;;;;;;;20.17;11.80;;;19.20;1.00;;;;;;4999802;28;20237;-74
2021/07/12 06:28:48;;;;;;;13.33;11.13;;;19.30;1.00;;;;;;5005691;28;20187;-72
2021/07/12 06:31:14;;;;;;;15.33;13.10;;;19.20;1.00;;;;;;5017734;28;20760;-72
2021/07/12 06:33:40;;;;;;;13.40;11.67;;;19.10;1.00;;;;;;5028527;28;20792;-72
2021/07/12 06:36:06;;;;;;;14.57;13.00;;;19.00;1.00;;;;;;5026504;28;20195;-72
2021/07/12 06:38:32;;;;;;;15.27;13.10;;;19.00;1.00;;;;;;5020680;28;20195;-73
2021/07/12 06:40:59;;;;;;;15.30;13.20;;;19.10;1.00;;;;;;5027032;28;20470;-73
2021/07/12 06:43:25;;;;;;;14.93;13.37;;;19.10;1.00;;;;;;5021185;28;20838;-73
2021/07/12 06:45:51;;;;;;;14.13;12.50;;;19.10;1.00;;;;;;5024253;28;20516;-73
2021/07/12 06:48:16;;;;;;;14.20;12.43;;;19.10;1.00;;;;;;5026926;28;20496;-73
2021/07/12 06:50:42;;;;;;;13.43;11.07;;;19.20;1.00;;;;;;5018132;28;20192;-73
2021/07/12 06:53:08;;;;;;;12.93;11.53;;;19.20;1.00;;;;;;5023204;28;20219;-73
2021/07/12 06:55:34;;;;;;;13.40;11.90;;;19.40;1.00;;;;;;5020715;28;20808;-73
2021/07/12 06:58:03;;;;;;;13.57;12.17;;;19.50;1.00;;;;;;5024433;28;20211;-73
2021/07/12 07:00:31;;;;;;;16.63;12.60;;;19.60;1.00;;;;;;5013638;28;20219;-73
2021/07/12 07:02:59;;;;;;;12.57;10.80;;;19.80;1.00;;;;;;5026636;28;20821;-73
2021/07/12 07:05:28;;;;;;;13.40;11.83;;;19.90;1.00;;;;;;5017937;28;20441;-72
2021/07/12 07:07:59;;;;;;;15.57;10.50;;;19.90;1.00;;;;;;5027877;28;20438;-73
2021/07/12 07:10:25;;;;;;;12.20;10.53;;;20.00;1.00;;;;;;5035893;28;20951;-73
2021/07/12 07:12:51;;;;;;;12.47;10.40;;;20.20;1.00;;;;;;5040104;28;20400;-73
2021/07/12 07:15:17;;;;;;;10.50;8.90;;;20.30;1.00;;;;;;5030305;28;20873;-73
2021/07/12 07:17:44;;;;;;;13.10;9.00;;;20.40;1.00;;;;;;5030067;28;20562;-73
2021/07/12 07:20:11;;;;;;;10.53;9.43;;;20.50;1.00;;;;;;5031347;28;20895;-73
2021/07/12 07:22:37;;;;;;;10.10;9.10;;;20.70;1.00;;;;;;5023497;28;20191;-73
2021/07/12 07:25:04;;;;;;;9.30;8.30;;;20.80;1.00;;;;;;5034873;28;20437;-73
2021/07/12 07:27:31;;;;;;;8.67;7.77;;;20.80;1.00;;;;;;5035766;28;20466;-73
2021/07/12 07:29:58;;;;;;;6.60;5.40;;;21.00;1.00;;;;;;5034804;28;20449;-72
2021/07/12 07:32:24;;;;;;;7.77;6.07;;;21.00;1.00;;;;;;5036932;28;20445;-73
2021/07/12 07:34:49;;;;;;;6.50;5.67;;;21.10;1.00;;;;;;5027077;28;20547;-73
2021/07/12 07:37:15;;;;;;;7.10;5.83;;;21.20;1.00;;;;;;5029405;28;20190;-73
2021/07/12 07:39:41;;;;;;;10.30;6.07;;;21.30;1.00;;;;;;5033635;28;20184;-73
2021/07/12 07:42:07;;;;;;;7.00;6.13;;;21.50;1.00;;;;;;5036088;28;20206;-73
2021/07/12 07:44:33;;;;;;;6.63;5.57;;;21.40;1.00;;;;;;5035719;28;20800;-73
2021/07/12 07:46:59;;;;;;;8.07;5.17;;;21.40;1.00;;;;;;5035305;28;20459;-73
2021/07/12 07:49:25;;;;;;;6.50;5.90;;;21.40;1.00;;;;;;5035562;28;20188;-71
2021/07/12 07:51:51;;;;;;;6.70;6.00;;;21.40;1.00;;;;;;5038136;28;20442;-73
2021/07/12 07:54:17;;;;;;;5.87;5.33;;;21.50;1.00;;;;;;5038148;28;20233;-73
2021/07/12 07:56:43;;;;;;;5.63;5.07;;;21.60;1.00;;;;;;5032669;28;20192;-73
2021/07/12 07:59:08;;;;;;;6.63;6.00;;;21.60;1.00;;;;;;5035115;28;20188;-73
2021/07/12 08:01:34;;;;;;;6.33;5.20;;;21.80;1.00;;;;;;5033917;28;22348;-72
2021/07/12 08:04:00;;;;;;;5.57;5.07;;;21.80;1.00;;;;;;5034381;28;20219;-71
2021/07/12 08:06:26;;;;;;;5.50;5.00;;;21.90;1.00;;;;;;5029953;28;20201;-73
2021/07/12 08:08:52;;;;;;;6.60;4.33;;;22.00;1.00;;;;;;5033191;28;20446;-72
2021/07/12 08:11:18;;;;;;;5.97;4.50;;;22.10;1.00;;;;;;5032036;28;20349;-73
2021/07/12 08:13:44;;;;;;;5.87;4.93;;;22.10;1.00;;;;;;5032408;28;20469;-71
2021/07/12 08:16:10;;;;;;;6.70;4.90;;;22.10;1.00;;;;;;5035397;28;20207;-72
2021/07/12 08:18:36;;;;;;;6.57;4.13;;;22.10;1.00;;;;;;5035332;28;20210;-72
2021/07/12 08:21:03;;;;;;;5.27;4.43;;;22.20;1.00;;;;;;5035037;28;20445;-73
2021/07/12 08:23:29;;;;;;;4.50;4.10;;;22.30;1.00;;;;;;5034089;28;21187;-74
2021/07/12 08:25:55;;;;;;;5.83;4.53;;;22.40;1.00;;;;;;5021529;28;20472;-73
2021/07/12 08:28:23;;;;;;;4.93;4.40;;;22.20;1.00;;;;;;5024415;28;21165;-73
2021/07/12 08:30:49;;;;;;;5.00;4.50;;;22.10;1.00;;;;;;5035554;28;20203;-73
2021/07/12 08:33:15;;;;;;;4.70;4.30;;;22.10;1.00;;;;;;5038575;28;21022;-73
2021/07/12 08:35:40;;;;;;;4.87;4.37;;;22.10;1.00;;;;;;5036139;28;20515;-73
2021/07/12 08:38:07;;;;;;;5.00;4.50;;;22.10;1.00;;;;;;5016261;28;20183;-73
2021/07/12 08:40:33;;;;;;;7.73;5.07;;;22.30;1.00;;;;;;5020581;28;20186;-73
2021/07/12 08:42:59;;;;;;;5.33;4.83;;;22.40;1.00;;;;;;5022509;28;20446;-73
2021/07/12 08:45:27;;;;;;;6.80;5.43;;;22.50;1.00;;;;;;5013552;28;20465;-73
2021/07/12 08:47:53;;;;;;;6.80;4.50;;;22.50;1.00;;;;;;5011243;28;20970;-74
2021/07/12 08:50:20;;;;;;;5.00;4.50;;;22.60;1.00;;;;;;5019055;28;20447;-73
2021/07/12 08:52:48;;;;;;;9.30;4.13;;;22.70;1.00;;;;;;5029289;28;20468;-73
2021/07/12 08:55:14;;;;;;;5.10;4.60;;;22.80;1.00;;;;;;5024976;28;20450;-73
2021/07/12 08:57:54;;;;;;;5.07;4.57;;;22.90;1.00;;;;;;5025303;28;20506;-73
2021/07/12 09:00:35;;;;;;;5.10;4.60;;;22.80;1.00;;;;;;5020519;28;20464;-74
2021/07/12 09:03:18;;;;;;;4.87;4.30;;;22.90;1.00;;;;;;5015712;28;20498;-74
2021/07/12 09:05:59;;;;;;;3.93;3.50;;;23.00;1.00;;;;;;5019765;28;20449;-74
2021/07/12 09:08:47;;;;;;;4.73;3.63;;;23.10;1.00;;;;;;5023475;28;20990;-74
2021/07/12 09:11:25;;;;;;;6.90;3.77;;;23.20;1.00;;;;;;5027081;28;20511;-73
2021/07/12 09:14:04;;;;;;;4.30;3.90;;;23.40;1.00;;;;;;5028959;28;23147;-72
2021/07/12 09:16:35;;;;;;;4.10;3.70;;;23.20;1.00;;;;;;5030330;28;21074;-73
2021/07/12 09:19:20;;;;;;;4.07;3.27;;;23.30;1.00;;;;;;5044479;28;20437;-73
2021/07/12 09:21:56;;;;;;;3.80;3.43;;;23.40;1.00;;;;;;5024158;28;20452;-73
2021/07/12 09:24:25;;;;;;;5.23;3.67;;;23.50;1.00;;;;;;5018352;28;20444;-73
2021/07/12 09:26:55;;;;;;;3.60;3.30;;;23.70;1.00;;;;;;5027493;28;20443;-73
2021/07/12 09:29:29;;;;;;;4.30;3.70;;;23.70;1.00;;;;;;5030049;28;20445;-73
2021/07/12 09:31:56;;;;;;;5.90;4.23;;;24.00;1.00;;;;;;5016180;28;20515;-73
2021/07/12 09:34:23;;;;;;;5.30;3.47;;;24.10;1.00;;;;;;5019030;28;20465;-73
2021/07/12 09:36:50;;;;;;;3.90;3.37;;;24.10;1.00;;;;;;5027287;28;20532;-73
2021/07/12 09:39:18;;;;;;;3.87;3.43;;;24.20;1.00;;;;;;5022692;28;20485;-73
2021/07/12 09:41:47;;;;;;;4.50;4.10;;;24.40;1.00;;;;;;5026318;28;20903;-73
2021/07/12 09:44:13;;;;;;;5.87;3.37;;;23.90;1.00;;;;;;5029517;28;21277;-73
2021/07/12 09:46:39;;;;;;;4.30;3.90;;;23.40;1.00;;;;;;5020865;28;21867;-73
2021/07/12 09:49:16;;;;;;;5.50;4.60;;;23.30;1.00;;;;;;5026226;28;20203;-73
2021/07/12 09:51:42;;;;;;;6.40;4.63;;;23.20;1.00;;;;;;5021114;28;20192;-72
2021/07/12 09:54:20;;;;;;;6.30;5.00;;;23.10;1.00;;;;;;5016304;28;20521;-73
2021/07/12 09:56:51;;;;;;;4.43;4.00;;;23.20;1.00;;;;;;5021931;28;21551;-72
2021/07/12 09:59:18;;;;;;;5.73;4.73;;;23.50;1.00;;;;;;5023025;28;20533;-72
2021/07/12 10:01:54;;;;;;;5.30;4.80;;;23.70;1.00;;;;;;5020306;28;20457;-72
2021/07/12 10:04:21;;;;;;;5.57;4.07;;;23.90;1.00;;;;;;5026036;28;20477;-73
2021/07/12 10:06:49;;;;;;;4.50;3.63;;;23.90;1.00;;;;;;5025401;28;22402;-72
2021/07/12 10:09:16;;;;;;;6.00;4.10;;;24.00;1.00;;;;;;5026108;28;20807;-72
2021/07/12 10:11:43;;;;;;;5.40;4.90;;;23.70;1.00;;;;;;5024569;28;21154;-72
2021/07/12 10:14:10;;;;;;;5.03;4.53;;;23.30;1.00;;;;;;5031806;28;20472;-73
2021/07/12 10:16:36;;;;;;;5.67;4.93;;;23.10;1.00;;;;;;5020476;28;20466;-73
2021/07/12 10:19:02;;;;;;;7.30;4.90;;;23.00;1.00;;;;;;5023479;28;20508;-72
2021/07/12 10:21:47;;;;;;;5.30;4.80;;;22.90;1.00;;;;;;5021834;28;20291;-73
2021/07/12 10:24:15;;;;;;;5.70;4.63;;;23.00;1.00;;;;;;5017568;28;20442;-72
2021/07/12 10:26:52;;;;;;;5.47;4.87;;;23.40;1.00;;;;;;5027737;28;20454;-73
2021/07/12 10:29:30;;;;;;;5.00;4.50;;;23.70;1.00;;;;;;5025183;28;20446;-73
2021/07/12 10:32:01;;;;;;;4.30;3.90;;;23.90;1.00;;;;;;5015613;28;20472;-73
2021/07/12 10:34:41;;;;;;;4.77;4.37;;;24.10;1.00;;;;;;5022380;28;20461;-73
2021/07/12 10:37:16;;;;;;;4.77;4.27;;;24.10;1.00;;;;;;5023042;28;20540;-73
2021/07/12 10:39:59;;;;;;;4.67;3.83;;;24.10;1.00;;;;;;5021504;28;20757;-73
2021/07/12 10:42:43;;;;;;;6.33;4.17;;;24.20;1.00;;;;;;5018425;28;20446;-73
2021/07/12 10:45:16;;;;;;;4.37;3.90;;;24.40;1.00;;;;;;5022394;28;20448;-73
2021/07/12 10:47:57;;;;;;;4.43;4.03;;;24.70;1.00;;;;;;5023408;28;20882;-73
2021/07/12 10:50:37;;;;;;;4.13;3.73;;;24.90;1.00;;;;;;5024629;28;20434;-73
2021/07/12 10:53:16;;;;;;;3.93;3.53;;;24.70;1.00;;;;;;5027572;28;20476;-73
2021/07/12 10:56:07;;;;;;;4.30;3.90;;;24.60;1.00;;;;;;5020163;28;20467;-74
2021/07/12 10:58:34;;;;;;;3.57;3.27;;;24.30;1.00;;;;;;5023207;28;20851;-73
2021/07/12 11:01:07;;;;;;;6.00;4.00;;;24.00;1.00;;;;;;5015849;28;21946;-74
2021/07/12 11:03:45;;;;;;;4.10;3.73;;;24.10;1.00;;;;;;4998248;28;20531;-74
2021/07/12 11:06:13;;;;;;;4.00;3.60;;;24.40;1.00;;;;;;5013940;28;21062;-73
2021/07/12 11:08:47;;;;;;;4.90;3.37;;;24.70;1.00;;;;;;5016047;28;22605;-73
2021/07/12 11:11:38;;;;;;;3.70;3.30;;;24.70;1.00;;;;;;5011403;28;20428;-73
2021/07/12 11:14:08;;;;;;;4.27;3.40;;;24.70;1.00;;;;;;5020034;28;20933;-73
2021/07/12 11:16:41;;;;;;;4.70;3.50;;;24.90;1.00;;;;;;5025448;28;20954;-74
2021/07/12 11:19:29;;;;;;;3.90;3.50;;;25.10;1.00;;;;;;5027090;28;20448;-73
2021/07/12 11:22:14;;;;;;;4.30;3.13;;;25.00;1.00;;;;;;5038059;28;20464;-73
2021/07/12 11:25:11;;;;;;;3.93;3.60;;;24.90;1.00;;;;;;5029943;28;20448;-73
2021/07/12 11:27:41;;;;;;;4.40;3.23;;;24.70;1.00;;;;;;5024602;28;20563;-73
2021/07/12 11:30:26;;;;;;;4.30;3.50;;;24.60;1.00;;;;;;5019399;28;20805;-73
2021/07/12 11:32:52;;;;;;;6.30;3.77;;;24.60;1.00;;;;;;5006283;28;20474;-73
2021/07/12 11:35:17;;;;;;;5.00;3.30;;;24.30;1.00;;;;;;5022011;28;20449;-73
2021/07/12 11:37:43;;;;;;;4.33;3.93;;;24.40;1.00;;;;;;5025872;28;20446;-73
2021/07/12 11:40:10;;;;;;;3.90;3.50;;;24.10;1.00;;;;;;5013250;28;21292;-73
2021/07/12 11:42:40;;;;;;;3.83;3.50;;;24.00;1.00;;;;;;5019850;28;20194;-73
2021/07/12 11:45:08;;;;;;;4.53;4.03;;;24.00;1.00;;;;;;5023248;28;20998;-73
2021/07/12 11:47:35;;;;;;;3.70;3.40;;;24.00;1.00;;;;;;5027211;28;20501;-74
2021/07/12 11:50:07;;;;;;;4.70;4.20;;;23.90;1.00;;;;;;5022179;28;20448;-74
2021/07/12 11:52:34;;;;;;;5.23;4.73;;;24.00;1.00;;;;;;5021271;28;20431;-73
2021/07/12 11:55:33;;;;;;;4.30;3.90;;;24.10;1.00;;;;;;5024114;28;21790;-74
2021/07/12 11:58:02;;;;;;;6.33;4.03;;;24.20;1.00;;;;;;5006902;28;20459;-74
2021/07/12 12:00:29;;;;;;;4.63;3.83;;;24.30;1.00;;;;;;5029591;28;20455;-74
2021/07/12 12:03:00;;;;;;;4.30;3.90;;;24.40;1.00;;;;;;5016289;28;20476;-73
2021/07/12 12:05:28;;;;;;;4.80;3.67;;;24.40;1.00;;;;;;5021840;28;20434;-73
2021/07/12 12:07:58;;;;;;;4.23;3.40;;;24.40;1.00;;;;;;5025575;28;20813;-74
2021/07/12 12:10:32;;;;;;;4.50;4.00;;;24.40;1.00;;;;;;5021387;28;20809;-74
2021/07/12 12:13:11;;;;;;;3.67;3.37;;;24.30;1.00;;;;;;5015854;28;20637;-74
2021/07/12 12:15:39;;;;;;;3.30;3.00;;;24.20;1.00;;;;;;5019090;28;20433;-74
2021/07/12 12:18:15;;;;;;;3.87;3.47;;;24.00;1.00;;;;;;5017837;28;20512;-74
2021/07/12 12:20:49;;;;;;;4.33;3.93;;;24.00;1.00;;;;;;5026422;28;20438;-74
2021/07/12 12:23:26;;;;;;;4.27;3.57;;;24.10;1.00;;;;;;5019732;28;20456;-74
2021/07/12 12:26:22;;;;;;;4.03;3.63;;;24.10;1.00;;;;;;5018738;28;20458;-74
2021/07/12 12:29:00;;;;;;;4.10;3.63;;;24.10;1.00;;;;;;5012633;28;20455;-73
2021/07/12 12:31:31;;;;;;;4.30;3.57;;;24.00;1.00;;;;;;5021263;28;20460;-74
2021/07/12 12:34:13;;;;;;;4.30;3.60;;;24.00;1.00;;;;;;5018909;28;20465;-74
2021/07/12 12:36:42;;;;;;;3.70;3.07;;;23.90;1.00;;;;;;5024411;28;20557;-74
2021/07/12 12:39:13;;;;;;;5.97;3.50;;;23.80;1.00;;;;;;5025284;28;20449;-75
2021/07/12 12:41:44;;;;;;;3.63;3.30;;;23.90;1.00;;;;;;5022743;28;20453;-75
2021/07/12 12:44:15;;;;;;;4.77;3.13;;;23.80;1.00;;;;;;5009728;28;21120;-74
2021/07/12 12:46:55;;;;;;;4.07;3.40;;;23.90;1.00;;;;;;5003314;28;21025;-75
2021/07/12 12:49:40;;;;;;;3.47;3.17;;;24.00;1.00;;;;;;5011537;28;20510;-74
2021/07/12 12:52:12;;;;;;;7.70;3.40;;;24.30;1.00;;;;;;5007209;28;20457;-74
2021/07/12 12:54:43;;;;;;;2.80;2.40;;;24.40;1.00;;;;;;5006017;28;21669;-73
2021/07/12 12:57:10;;;;;;;3.60;2.73;;;24.40;1.00;;;;;;5015774;28;21159;-74
2021/07/12 12:59:40;;;;;;;7.10;2.90;;;24.50;1.00;;;;;;5024666;28;20990;-74
2021/07/12 13:02:11;;;;;;;2.60;2.30;;;24.60;1.00;;;;;;5025195;28;20492;-74
2021/07/12 13:04:52;;;;;;;2.60;2.40;;;24.60;1.00;;;;;;5018624;28;20468;-73